createdAt,value
2022-10-04T00:04:40.905Z,99765.51
2022-10-04T00:09:50.919Z,99770.19
2022-10-04T00:14:57.774Z,99764.01
2022-10-04T00:20:01.813Z,99758.55
2022-10-04T00:25:07.785Z,99761.38
2022-10-04T00:30:23.827Z,99759.64
2022-10-04T00:35:26.597Z,99757.90
2022-10-04T00:40:36.052Z,99758.08
2022-10-04T00:45:43.607Z,99761.65
2022-10-04T00:50:56.809Z,99763.02
2022-10-04T00:56:03.709Z,99761.98
2022-10-04T01:01:07.154Z,99759.55
2022-10-04T01:06:12.075Z,99752.77
2022-10-04T01:11:25.630Z,99757.73
2022-10-04T01:16:33.599Z,99760.46
2022-10-04T01:21:39.423Z,99759.27
2022-10-04T01:26:44.991Z,99759.45
2022-10-04T01:31:53.576Z,99752.77
2022-10-04T01:36:59.962Z,99751.45
2022-10-04T01:42:06.199Z,99751.70
2022-10-04T01:47:16.684Z,99754.59
2022-10-04T01:52:24.193Z,99757.95
2022-10-04T01:57:42.867Z,99759.59
2022-10-04T02:02:51.692Z,99754.67
2022-10-04T02:07:56.558Z,99756.17
2022-10-04T02:13:01.101Z,99756.58
2022-10-04T02:18:06.514Z,99757.33
2022-10-04T02:23:11.421Z,99759.40
2022-10-04T02:28:16.930Z,99753.99
2022-10-04T02:33:20.195Z,99755.36
2022-10-04T02:38:25.557Z,99765.20
2022-10-04T02:43:51.913Z,99766.41
2022-10-04T02:49:20.416Z,99769.66
2022-10-04T02:54:47.177Z,99767.87
2022-10-04T02:59:52.007Z,99768.64
2022-10-04T03:04:59.439Z,99769.89
2022-10-04T03:10:07.441Z,99772.08
2022-10-04T03:15:13.346Z,99774.58
2022-10-04T03:20:21.407Z,99773.91
2022-10-04T03:25:30.820Z,99776.05
2022-10-04T03:30:36.720Z,99788.11
2022-10-04T03:35:40.795Z,99786.80
2022-10-04T03:40:51.938Z,99790.15
2022-10-04T03:45:57.036Z,99787.30
2022-10-04T03:51:03.263Z,99787.63
2022-10-04T03:56:38.728Z,99790.32
2022-10-04T04:01:51.610Z,99795.70
2022-10-04T04:07:03.345Z,99797.40
2022-10-04T04:12:21.437Z,99801.86
2022-10-04T04:17:29.871Z,99807.06
2022-10-04T04:22:33.621Z,99808.64
2022-10-04T04:27:40.089Z,99811.05
2022-10-04T04:32:49.470Z,99818.13
2022-10-04T04:38:10.775Z,99821.77
2022-10-04T04:43:21.153Z,99821.63
2022-10-04T04:48:24.161Z,99829.48
2022-10-04T04:53:29.318Z,99832.15
2022-10-04T04:58:43.631Z,99839.41
2022-10-04T05:04:00.544Z,99849.65
2022-10-04T05:09:05.582Z,99856.81
2022-10-04T05:14:11.554Z,99860.08
2022-10-04T05:19:16.815Z,99866.14
2022-10-04T05:24:26.372Z,99870.67
2022-10-04T05:29:34.517Z,99870.39
2022-10-04T05:34:42.856Z,99871.27
2022-10-04T05:39:58.495Z,99867.49
2022-10-04T05:45:01.543Z,99882.30
2022-10-04T05:50:05.202Z,99892.73
2022-10-04T05:55:27.123Z,99896.30
2022-10-04T06:00:51.126Z,99902.00
2022-10-04T06:05:57.688Z,99904.55
2022-10-04T06:11:18.938Z,99906.36
2022-10-04T06:16:21.874Z,99912.88
2022-10-04T06:21:27.714Z,99918.05
2022-10-04T06:26:44.034Z,99921.83
2022-10-04T06:31:59.738Z,99936.61
2022-10-04T06:37:09.913Z,99941.69
2022-10-04T06:42:25.208Z,99939.66
2022-10-04T06:47:43.780Z,99939.93
2022-10-04T06:53:15.464Z,99957.37
2022-10-04T06:58:44.398Z,99956.98
2022-10-04T07:03:56.390Z,99959.86
2022-10-04T07:09:05.754Z,99963.20
2022-10-04T07:14:24.973Z,99973.29
2022-10-04T07:19:39.427Z,99973.75
2022-10-04T07:24:51.331Z,99974.98
2022-10-04T07:30:00.496Z,99977.52
2022-10-04T07:35:09.251Z,99982.61
2022-10-04T07:40:34.033Z,99990.93
2022-10-04T07:45:41.935Z,99991.19
2022-10-04T07:51:23.100Z,99996.89
2022-10-04T07:56:45.630Z,100007.16
2022-10-04T08:02:27.745Z,100013.21
2022-10-04T08:07:51.742Z,100021.25
2022-10-04T08:13:22.436Z,100037.27
2022-10-04T08:18:31.445Z,100041.06
2022-10-04T08:23:44.977Z,100048.73
2022-10-04T08:29:40.851Z,100051.91
2022-10-04T08:35:16.621Z,100052.28
2022-10-04T08:40:55.264Z,100058.48
2022-10-04T08:46:31.598Z,100067.48
2022-10-04T08:51:40.910Z,100077.63
2022-10-04T08:56:43.858Z,100072.71
2022-10-04T09:02:15.963Z,100077.77
2022-10-04T09:07:30.790Z,100082.57
2022-10-04T09:13:02.001Z,100090.55
2022-10-04T09:18:51.348Z,100086.54
2022-10-04T09:24:19.136Z,100087.60
2022-10-04T09:29:34.227Z,100086.06
2022-10-04T09:34:51.847Z,100092.10
2022-10-04T09:40:26.220Z,100096.86
2022-10-04T09:45:49.300Z,100095.78
2022-10-04T09:51:17.083Z,100104.27
2022-10-04T09:56:42.901Z,100110.79
2022-10-04T10:02:11.241Z,100130.33
2022-10-04T10:07:22.939Z,100144.69
2022-10-04T10:13:12.228Z,100151.81
2022-10-04T10:18:33.774Z,100145.46
2022-10-04T10:24:12.108Z,100147.16
2022-10-04T10:29:39.383Z,100150.69
2022-10-04T10:35:00.418Z,100157.12
2022-10-04T10:40:37.457Z,100159.31
2022-10-04T10:46:08.011Z,100168.88
2022-10-04T10:51:20.725Z,100178.92
2022-10-04T10:56:47.873Z,100178.05
2022-10-04T11:01:50.956Z,100193.36
2022-10-04T11:07:20.726Z,100199.89
2022-10-04T11:13:01.308Z,100205.98
2022-10-04T11:18:42.316Z,100212.64
2022-10-04T11:24:25.045Z,100217.47
2022-10-04T11:29:31.142Z,100226.05
2022-10-04T11:35:01.578Z,100232.90
2022-10-04T11:40:07.248Z,100235.94
2022-10-04T11:45:33.599Z,100237.75
2022-10-04T11:51:12.549Z,100247.88
2022-10-04T11:56:38.598Z,100249.25
2022-10-04T12:02:16.625Z,100257.25
2022-10-04T12:07:47.893Z,100258.40
2022-10-04T12:12:54.072Z,100257.23
2022-10-04T12:18:33.239Z,100257.63
2022-10-04T12:23:54.361Z,100253.16
2022-10-04T12:29:00.131Z,100257.68
2022-10-04T12:34:15.193Z,100261.44
2022-10-04T12:39:41.071Z,100262.46
2022-10-04T12:44:43.870Z,100267.77
2022-10-04T12:49:56.508Z,100272.16
2022-10-04T12:55:23.671Z,100276.52
2022-10-04T13:00:34.262Z,100281.89
2022-10-04T13:06:03.277Z,100284.89
2022-10-04T13:11:24.713Z,100296.05
2022-10-04T13:22:56.320Z,100308.56
2022-10-04T13:28:06.275Z,100311.43
2022-10-04T13:33:40.341Z,100313.36
2022-10-04T13:39:01.268Z,100310.49
2022-10-04T13:44:41.759Z,100322.30
2022-10-04T13:49:56.534Z,100315.14
2022-10-04T13:55:24.321Z,100322.20
2022-10-04T14:00:59.750Z,100318.20
2022-10-04T14:06:30.050Z,100317.67
2022-10-04T14:11:32.837Z,100322.50
2022-10-04T14:16:50.719Z,100323.73
2022-10-04T14:21:56.466Z,100325.73
2022-10-04T14:27:28.554Z,100331.20
2022-10-04T14:32:43.643Z,100328.05
2022-10-04T14:38:01.885Z,100331.66
2022-10-04T14:43:10.547Z,100340.61
2022-10-04T14:48:28.711Z,100345.30
2022-10-04T14:53:42.068Z,100349.66
2022-10-04T14:59:29.410Z,100355.09
2022-10-04T15:04:57.096Z,100365.40
2022-10-04T15:10:22.534Z,100367.86
2022-10-04T15:15:40.965Z,100370.08
2022-10-04T15:20:54.445Z,100371.73
2022-10-04T15:26:13.177Z,100380.23
2022-10-04T15:31:28.674Z,100382.66
2022-10-04T15:36:39.718Z,100381.23
2022-10-04T15:42:25.117Z,100390.77
2022-10-04T15:47:57.111Z,100397.98
2022-10-04T15:53:45.894Z,100401.49
2022-10-04T15:59:28.624Z,100407.22
2022-10-04T16:04:32.763Z,100414.08
2022-10-04T16:09:41.497Z,100419.11
2022-10-04T16:15:21.063Z,100419.73
2022-10-04T16:20:43.216Z,100423.96
2022-10-04T16:25:48.173Z,100422.39
2022-10-04T16:31:20.351Z,100423.19
2022-10-04T16:36:28.561Z,100418.38
2022-10-04T16:41:41.570Z,100421.56
2022-10-04T16:46:46.449Z,100420.92
2022-10-04T16:52:03.003Z,100429.30
2022-10-04T16:57:13.900Z,100429.87
2022-10-04T17:03:04.213Z,100431.55
2022-10-04T17:08:15.825Z,100439.82
2022-10-04T17:13:46.169Z,100444.98
2022-10-04T17:18:48.963Z,100446.48
2022-10-04T17:24:08.976Z,100448.98
2022-10-04T17:29:38.401Z,100451.67
2022-10-04T17:34:59.782Z,100453.66
2022-10-04T17:40:12.575Z,100462.34
2022-10-04T17:45:41.080Z,100468.54
2022-10-04T17:51:23.513Z,100480.13
2022-10-04T17:56:45.188Z,100482.35
2022-10-04T18:02:00.299Z,100481.98
2022-10-04T18:07:16.342Z,100480.09
2022-10-04T18:12:30.454Z,100478.08
2022-10-04T18:17:41.111Z,100483.59
2022-10-04T18:22:50.067Z,100484.44
2022-10-04T18:28:08.102Z,100486.98
2022-10-04T18:33:16.291Z,100486.36
2022-10-04T18:38:28.975Z,100486.58
2022-10-04T18:43:49.679Z,100490.35
2022-10-04T18:49:00.105Z,100497.23
2022-10-04T18:54:34.629Z,100495.29
2022-10-04T19:00:03.042Z,100496.59
2022-10-04T19:05:05.935Z,100500.52
2022-10-04T19:10:20.823Z,100509.23
2022-10-04T19:15:50.173Z,100518.63
2022-10-04T19:21:04.926Z,100521.23
2022-10-04T19:26:37.669Z,100532.48
2022-10-04T19:32:01.536Z,100541.68
2022-10-04T19:37:10.574Z,100542.39
2022-10-04T19:42:36.621Z,100540.99
2022-10-04T19:47:49.047Z,100541.48
2022-10-04T19:52:59.737Z,100532.30
2022-10-04T19:58:19.537Z,100529.94
2022-10-04T20:03:22.747Z,100534.58
2022-10-04T20:09:01.529Z,100540.11
2022-10-04T20:14:05.317Z,100542.27
2022-10-04T20:19:19.490Z,100544.64
2022-10-04T20:24:37.653Z,100542.95
2022-10-04T20:29:40.467Z,100541.70
2022-10-04T20:34:43.252Z,100531.58
2022-10-04T20:39:46.259Z,100529.62
2022-10-04T20:44:56.204Z,100529.02
2022-10-04T20:50:00.104Z,100536.94
2022-10-04T20:55:15.763Z,100530.10
2022-10-04T21:00:21.467Z,100530.73
2022-10-04T21:05:25.010Z,100535.02
2022-10-04T21:10:28.775Z,100537.70
2022-10-04T21:15:31.678Z,100541.28
2022-10-04T21:20:45.027Z,100544.08
2022-10-04T21:25:47.930Z,100544.89
2022-10-04T21:30:50.732Z,100544.55
2022-10-04T21:35:53.538Z,100549.48
2022-10-04T21:40:56.950Z,100558.92
2022-10-04T21:46:00.025Z,100570.05
2022-10-04T21:51:03.372Z,100574.22
2022-10-04T21:56:08.021Z,100568.80
2022-10-04T22:01:11.182Z,100576.43
2022-10-04T22:06:14.133Z,100572.17
2022-10-04T22:11:17.244Z,100576.19
2022-10-04T22:16:20.110Z,100567.95
2022-10-04T22:21:23.154Z,100558.69
2022-10-04T22:26:26.953Z,100562.89
2022-10-04T22:31:30.207Z,100563.04
2022-10-04T22:36:37.915Z,100560.00
2022-10-04T22:41:47.434Z,100560.98
2022-10-04T22:46:55.698Z,100560.53
2022-10-04T22:52:01.069Z,100559.37
2022-10-04T22:57:04.070Z,100562.67
2022-10-04T23:02:15.064Z,100564.44
2022-10-04T23:07:19.139Z,100562.56
2022-10-04T23:12:22.098Z,100562.39
2022-10-04T23:17:25.820Z,100560.82
2022-10-04T23:22:30.752Z,100567.83
2022-10-04T23:27:34.497Z,100561.56
2022-10-04T23:32:37.401Z,100543.67
2022-10-04T23:37:40.407Z,100541.21
2022-10-04T23:42:43.353Z,100543.82
2022-10-04T23:47:49.903Z,100555.81
2022-10-04T23:52:58.210Z,100550.43
2022-10-04T23:58:01.444Z,100545.05
